sensor_id;sensor_type;location;lat;lon;timestamp;pressure;altitude;pressure_sealevel;temperature;humidity
49194;BME280;35029;50.804;12.866;2024-03-29T00:00:03;96172.94;;;7.43;73.16
49194;BME280;35029;50.804;12.866;2024-03-29T00:02:37;96171.56;;;7.34;73.21
49194;BME280;35029;50.804;12.866;2024-03-29T00:05:03;96168.34;;;7.32;73.89
49194;BME280;35029;50.804;12.866;2024-03-29T00:07:29;96176.25;;;7.32;73.17
49194;BME280;35029;50.804;12.866;2024-03-29T00:09:54;96168.75;;;7.29;73.10
49194;BME280;35029;50.804;12.866;2024-03-29T00:12:20;96175.06;;;7.28;74.49
49194;BME280;35029;50.804;12.866;2024-03-29T00:14:47;96183.09;;;7.40;72.98
49194;BME280;35029;50.804;12.866;2024-03-29T00:17:13;96175.69;;;7.23;73.56
49194;BME280;35029;50.804;12.866;2024-03-29T00:19:39;96167.50;;;7.06;73.89
49194;BME280;35029;50.804;12.866;2024-03-29T00:22:04;96188.09;;;7.16;73.67
49194;BME280;35029;50.804;12.866;2024-03-29T00:24:30;96188.78;;;7.05;75.13
49194;BME280;35029;50.804;12.866;2024-03-29T00:26:55;96205.22;;;7.00;75.72
49194;BME280;35029;50.804;12.866;2024-03-29T00:29:21;96191.50;;;6.91;75.17
49194;BME280;35029;50.804;12.866;2024-03-29T00:31:47;96208.25;;;7.04;74.98
49194;BME280;35029;50.804;12.866;2024-03-29T00:34:13;96211.72;;;6.98;74.97
49194;BME280;35029;50.804;12.866;2024-03-29T00:36:39;96208.09;;;6.92;75.78
49194;BME280;35029;50.804;12.866;2024-03-29T00:39:06;96204.03;;;6.89;76.07
49194;BME280;35029;50.804;12.866;2024-03-29T00:41:36;96214.63;;;6.76;77.50
49194;BME280;35029;50.804;12.866;2024-03-29T00:44:01;96195.22;;;6.64;78.28
49194;BME280;35029;50.804;12.866;2024-03-29T00:46:28;96212.66;;;6.65;78.27
49194;BME280;35029;50.804;12.866;2024-03-29T00:48:54;96208.59;;;6.62;78.67
49194;BME280;35029;50.804;12.866;2024-03-29T00:51:20;96223.19;;;6.58;78.74
49194;BME280;35029;50.804;12.866;2024-03-29T00:53:45;96212.69;;;6.51;79.08
49194;BME280;35029;50.804;12.866;2024-03-29T00:56:11;96224.22;;;6.50;78.38
49194;BME280;35029;50.804;12.866;2024-03-29T00:58:37;96212.34;;;6.34;79.10
49194;BME280;35029;50.804;12.866;2024-03-29T01:01:02;96226.06;;;6.43;79.02
49194;BME280;35029;50.804;12.866;2024-03-29T01:03:28;96216.38;;;6.43;79.20
49194;BME280;35029;50.804;12.866;2024-03-29T01:05:56;96222.88;;;6.34;79.38
49194;BME280;35029;50.804;12.866;2024-03-29T01:08:22;96215.56;;;6.36;80.86
49194;BME280;35029;50.804;12.866;2024-03-29T01:10:50;96228.16;;;6.28;80.02
49194;BME280;35029;50.804;12.866;2024-03-29T01:13:15;96214.00;;;6.08;81.70
49194;BME280;35029;50.804;12.866;2024-03-29T01:15:41;96184.66;;;6.05;81.74
49194;BME280;35029;50.804;12.866;2024-03-29T01:18:06;96199.00;;;6.16;82.31
49194;BME280;35029;50.804;12.866;2024-03-29T01:20:32;96203.06;;;6.12;81.72
49194;BME280;35029;50.804;12.866;2024-03-29T01:22:57;96194.56;;;6.09;81.93
49194;BME280;35029;50.804;12.866;2024-03-29T01:25:23;96158.34;;;5.85;82.23
49194;BME280;35029;50.804;12.866;2024-03-29T01:27:49;96182.03;;;6.05;82.58
49194;BME280;35029;50.804;12.866;2024-03-29T01:30:15;96189.09;;;5.91;81.57
49194;BME280;35029;50.804;12.866;2024-03-29T01:32:41;96186.88;;;5.81;83.52
49194;BME280;35029;50.804;12.866;2024-03-29T01:35:07;96189.72;;;5.86;82.88
49194;BME280;35029;50.804;12.866;2024-03-29T01:37:32;96185.66;;;5.97;82.31
49194;BME280;35029;50.804;12.866;2024-03-29T01:39:59;96190.09;;;5.97;81.73
49194;BME280;35029;50.804;12.866;2024-03-29T01:42:24;96194.34;;;5.91;82.21
49194;BME280;35029;50.804;12.866;2024-03-29T01:44:51;96192.72;;;5.83;82.97
49194;BME280;35029;50.804;12.866;2024-03-29T01:47:17;96186.25;;;5.66;82.68
49194;BME280;35029;50.804;12.866;2024-03-29T01:49:44;96185.84;;;5.42;86.39
49194;BME280;35029;50.804;12.866;2024-03-29T01:52:13;96176.56;;;5.66;84.54
49194;BME280;35029;50.804;12.866;2024-03-29T01:54:40;96173.13;;;5.86;82.09
49194;BME280;35029;50.804;12.866;2024-03-29T01:57:07;96174.31;;;6.17;78.07
49194;BME280;35029;50.804;12.866;2024-03-29T01:59:32;96167.56;;;6.48;75.48
49194;BME280;35029;50.804;12.866;2024-03-29T02:01:59;96174.97;;;6.71;72.38
49194;BME280;35029;50.804;12.866;2024-03-29T02:04:26;96175.75;;;6.78;72.47
49194;BME280;35029;50.804;12.866;2024-03-29T02:06:52;96161.13;;;6.82;71.97
49194;BME280;35029;50.804;12.866;2024-03-29T02:09:17;96168.78;;;6.90;71.39
49194;BME280;35029;50.804;12.866;2024-03-29T02:11:43;96141.28;;;6.80;69.96
49194;BME280;35029;50.804;12.866;2024-03-29T02:14:09;96177.25;;;6.99;69.63
49194;BME280;35029;50.804;12.866;2024-03-29T02:16:34;96160.50;;;6.87;69.91
49194;BME280;35029;50.804;12.866;2024-03-29T02:19:00;96185.56;;;6.96;70.61
49194;BME280;35029;50.804;12.866;2024-03-29T02:21:26;96193.28;;;6.91;70.33
49194;BME280;35029;50.804;12.866;2024-03-29T02:23:59;96188.59;;;7.00;70.81
49194;BME280;35029;50.804;12.866;2024-03-29T02:26:25;96185.19;;;6.92;69.92
49194;BME280;35029;50.804;12.866;2024-03-29T02:28:57;96189.22;;;6.95;69.95
49194;BME280;35029;50.804;12.866;2024-03-29T02:31:23;96180.91;;;6.98;70.54
49194;BME280;35029;50.804;12.866;2024-03-29T02:33:49;96171.66;;;6.82;70.45
49194;BME280;35029;50.804;12.866;2024-03-29T02:36:14;96194.44;;;7.08;69.46
49194;BME280;35029;50.804;12.866;2024-03-29T02:38:40;96193.63;;;7.08;68.96
49194;BME280;35029;50.804;12.866;2024-03-29T02:41:06;96206.19;;;7.06;69.77
49194;BME280;35029;50.804;12.866;2024-03-29T02:43:32;96199.97;;;6.93;69.72
49194;BME280;35029;50.804;12.866;2024-03-29T02:45:57;96197.38;;;6.87;70.56
49194;BME280;35029;50.804;12.866;2024-03-29T02:48:23;96198.81;;;6.83;71.06
49194;BME280;35029;50.804;12.866;2024-03-29T02:50:48;96201.31;;;6.71;70.90
49194;BME280;35029;50.804;12.866;2024-03-29T02:53:14;96206.97;;;6.68;71.73
49194;BME280;35029;50.804;12.866;2024-03-29T02:55:41;96184.34;;;6.53;71.84
49194;BME280;35029;50.804;12.866;2024-03-29T02:58:07;96206.16;;;6.67;72.07
49194;BME280;35029;50.804;12.866;2024-03-29T03:00:33;96186.75;;;6.62;71.03
49194;BME280;35029;50.804;12.866;2024-03-29T03:02:59;96209.38;;;6.76;69.34
49194;BME280;35029;50.804;12.866;2024-03-29T03:05:25;96215.66;;;6.82;69.65
49194;BME280;35029;50.804;12.866;2024-03-29T03:07:50;96199.44;;;6.78;71.44
49194;BME280;35029;50.804;12.866;2024-03-29T03:10:34;96211.13;;;6.96;70.89
49194;BME280;35029;50.804;12.866;2024-03-29T03:13:18;96205.25;;;6.87;68.23
49194;BME280;35029;50.804;12.866;2024-03-29T03:15:44;96205.53;;;6.72;69.42
49194;BME280;35029;50.804;12.866;2024-03-29T03:18:09;96207.19;;;6.59;70.46
49194;BME280;35029;50.804;12.866;2024-03-29T03:20:35;96173.66;;;6.41;70.81
49194;BME280;35029;50.804;12.866;2024-03-29T03:23:04;96161.53;;;6.27;71.69
49194;BME280;35029;50.804;12.866;2024-03-29T03:25:29;96175.47;;;6.41;72.73
49194;BME280;35029;50.804;12.866;2024-03-29T03:27:55;96158.09;;;6.33;74.63
49194;BME280;35029;50.804;12.866;2024-03-29T03:30:21;96131.44;;;6.09;73.89
49194;BME280;35029;50.804;12.866;2024-03-29T03:32:47;96157.69;;;6.23;73.66
49194;BME280;35029;50.804;12.866;2024-03-29T03:35:13;96177.94;;;6.22;73.66
49194;BME280;35029;50.804;12.866;2024-03-29T03:37:39;96182.63;;;6.20;72.79
49194;BME280;35029;50.804;12.866;2024-03-29T03:40:05;96200.00;;;6.28;75.01
49194;BME280;35029;50.804;12.866;2024-03-29T03:42:32;96198.97;;;6.29;74.38
49194;BME280;35029;50.804;12.866;2024-03-29T03:44:58;96176.75;;;6.18;73.41
49194;BME280;35029;50.804;12.866;2024-03-29T03:47:23;96186.03;;;6.28;74.41
49194;BME280;35029;50.804;12.866;2024-03-29T03:49:49;96203.41;;;6.42;75.02
49194;BME280;35029;50.804;12.866;2024-03-29T03:52:15;96178.47;;;6.45;73.80
49194;BME280;35029;50.804;12.866;2024-03-29T03:54:40;96180.47;;;6.63;73.47
49194;BME280;35029;50.804;12.866;2024-03-29T03:57:06;96177.00;;;6.69;72.31
49194;BME280;35029;50.804;12.866;2024-03-29T03:59:31;96177.38;;;6.72;72.71
49194;BME280;35029;50.804;12.866;2024-03-29T04:01:57;96183.22;;;6.81;73.06
49194;BME280;35029;50.804;12.866;2024-03-29T04:04:23;96163.16;;;6.80;72.68
49194;BME280;35029;50.804;12.866;2024-03-29T04:06:49;96177.91;;;6.88;72.68
49194;BME280;35029;50.804;12.866;2024-03-29T04:09:15;96174.28;;;6.89;71.75
49194;BME280;35029;50.804;12.866;2024-03-29T04:11:43;96148.38;;;6.79;73.33
49194;BME280;35029;50.804;12.866;2024-03-29T04:14:09;96153.50;;;6.67;75.95
49194;BME280;35029;50.804;12.866;2024-03-29T04:16:34;96155.25;;;6.80;75.54
49194;BME280;35029;50.804;12.866;2024-03-29T04:19:00;96147.09;;;6.88;73.72
49194;BME280;35029;50.804;12.866;2024-03-29T04:21:26;96163.69;;;6.96;73.22
49194;BME280;35029;50.804;12.866;2024-03-29T04:23:52;96150.06;;;7.05;72.39
49194;BME280;35029;50.804;12.866;2024-03-29T04:26:18;96131.63;;;7.05;71.54
49194;BME280;35029;50.804;12.866;2024-03-29T04:28:44;96131.09;;;7.22;71.17
49194;BME280;35029;50.804;12.866;2024-03-29T04:31:10;96117.03;;;7.03;71.55
49194;BME280;35029;50.804;12.866;2024-03-29T04:33:36;96133.53;;;7.23;71.67
49194;BME280;35029;50.804;12.866;2024-03-29T04:36:03;96116.53;;;7.19;72.50
49194;BME280;35029;50.804;12.866;2024-03-29T04:38:30;96123.94;;;7.29;72.00
49194;BME280;35029;50.804;12.866;2024-03-29T04:40:57;96108.41;;;7.21;73.53
49194;BME280;35029;50.804;12.866;2024-03-29T04:43:27;96123.25;;;7.15;74.22
49194;BME280;35029;50.804;12.866;2024-03-29T04:46:03;96125.31;;;7.13;75.32
49194;BME280;35029;50.804;12.866;2024-03-29T04:48:33;96129.75;;;7.13;74.89
49194;BME280;35029;50.804;12.866;2024-03-29T04:50:59;96125.75;;;7.03;75.83
49194;BME280;35029;50.804;12.866;2024-03-29T04:53:25;96127.03;;;6.94;76.40
49194;BME280;35029;50.804;12.866;2024-03-29T04:55:55;96138.91;;;7.03;77.60
49194;BME280;35029;50.804;12.866;2024-03-29T04:58:29;96118.38;;;6.80;79.17
49194;BME280;35029;50.804;12.866;2024-03-29T05:00:55;96126.28;;;6.80;81.11
49194;BME280;35029;50.804;12.866;2024-03-29T05:03:22;96137.97;;;6.91;81.44
49194;BME280;35029;50.804;12.866;2024-03-29T05:05:51;96132.66;;;6.98;80.63
49194;BME280;35029;50.804;12.866;2024-03-29T05:08:18;96124.91;;;7.09;79.04
49194;BME280;35029;50.804;12.866;2024-03-29T05:10:45;96131.63;;;7.31;75.25
49194;BME280;35029;50.804;12.866;2024-03-29T05:13:11;96134.56;;;7.48;71.38
49194;BME280;35029;50.804;12.866;2024-03-29T05:15:37;96131.59;;;7.63;69.54
49194;BME280;35029;50.804;12.866;2024-03-29T05:18:03;96152.16;;;7.79;68.64
49194;BME280;35029;50.804;12.866;2024-03-29T05:20:29;96155.19;;;7.83;69.06
49194;BME280;35029;50.804;12.866;2024-03-29T05:22:55;96149.53;;;7.79;68.40
49194;BME280;35029;50.804;12.866;2024-03-29T05:25:21;96155.38;;;7.81;69.13
49194;BME280;35029;50.804;12.866;2024-03-29T05:27:48;96156.03;;;7.76;69.93
49194;BME280;35029;50.804;12.866;2024-03-29T05:30:14;96158.09;;;7.74;69.82
49194;BME280;35029;50.804;12.866;2024-03-29T05:32:39;96151.16;;;7.80;69.45
49194;BME280;35029;50.804;12.866;2024-03-29T05:35:05;96155.97;;;7.83;68.45
49194;BME280;35029;50.804;12.866;2024-03-29T05:37:31;96137.41;;;7.71;66.83
49194;BME280;35029;50.804;12.866;2024-03-29T05:39:56;96180.19;;;7.99;66.01
49194;BME280;35029;50.804;12.866;2024-03-29T05:42:30;96178.88;;;8.08;65.07
49194;BME280;35029;50.804;12.866;2024-03-29T05:44:56;96168.56;;;8.06;64.99
49194;BME280;35029;50.804;12.866;2024-03-29T05:47:21;96183.09;;;8.16;64.89
49194;BME280;35029;50.804;12.866;2024-03-29T05:49:47;96176.84;;;8.10;66.10
49194;BME280;35029;50.804;12.866;2024-03-29T05:52:13;96176.69;;;8.05;66.13
49194;BME280;35029;50.804;12.866;2024-03-29T05:54:45;96181.75;;;8.06;66.95
49194;BME280;35029;50.804;12.866;2024-03-29T05:57:11;96177.72;;;8.04;66.69
49194;BME280;35029;50.804;12.866;2024-03-29T05:59:37;96167.66;;;7.94;68.08
49194;BME280;35029;50.804;12.866;2024-03-29T06:02:05;96182.25;;;7.97;70.20
49194;BME280;35029;50.804;12.866;2024-03-29T06:04:31;96192.81;;;7.97;70.11
49194;BME280;35029;50.804;12.866;2024-03-29T06:07:02;96180.69;;;7.89;70.15
49194;BME280;35029;50.804;12.866;2024-03-29T06:09:28;96180.50;;;7.84;70.99
49194;BME280;35029;50.804;12.866;2024-03-29T06:11:55;96182.75;;;7.87;71.72
49194;BME280;35029;50.804;12.866;2024-03-29T06:14:21;96170.69;;;7.72;71.64
49194;BME280;35029;50.804;12.866;2024-03-29T06:17:08;96217.13;;;7.99;70.41
49194;BME280;35029;50.804;12.866;2024-03-29T06:19:50;96217.50;;;8.02;70.37
49194;BME280;35029;50.804;12.866;2024-03-29T06:22:22;96219.13;;;8.03;70.31
49194;BME280;35029;50.804;12.866;2024-03-29T06:24:51;96208.94;;;8.07;71.03
49194;BME280;35029;50.804;12.866;2024-03-29T06:27:18;96197.41;;;8.01;71.80
49194;BME280;35029;50.804;12.866;2024-03-29T06:29:45;96198.97;;;8.09;72.92
49194;BME280;35029;50.804;12.866;2024-03-29T06:32:14;96193.25;;;8.12;73.27
49194;BME280;35029;50.804;12.866;2024-03-29T06:34:41;96188.38;;;8.16;73.37
49194;BME280;35029;50.804;12.866;2024-03-29T06:37:07;96162.59;;;8.11;74.15
49194;BME280;35029;50.804;12.866;2024-03-29T06:39:33;96159.75;;;8.12;74.11
49194;BME280;35029;50.804;12.866;2024-03-29T06:41:58;96177.88;;;8.27;73.59
49194;BME280;35029;50.804;12.866;2024-03-29T06:44:24;96172.09;;;8.37;71.46
49194;BME280;35029;50.804;12.866;2024-03-29T06:46:56;96165.31;;;8.48;70.53
49194;BME280;35029;50.804;12.866;2024-03-29T06:49:22;96163.41;;;8.55;70.13
49194;BME280;35029;50.804;12.866;2024-03-29T06:51:48;96170.41;;;8.61;70.01
49194;BME280;35029;50.804;12.866;2024-03-29T06:54:13;96169.78;;;8.66;69.55
49194;BME280;35029;50.804;12.866;2024-03-29T06:56:39;96165.28;;;8.67;69.01
49194;BME280;35029;50.804;12.866;2024-03-29T06:59:04;96171.16;;;8.69;68.04
49194;BME280;35029;50.804;12.866;2024-03-29T07:01:30;96183.94;;;8.72;67.43
49194;BME280;35029;50.804;12.866;2024-03-29T07:03:58;96181.84;;;8.74;67.82
49194;BME280;35029;50.804;12.866;2024-03-29T07:06:24;96176.72;;;8.79;67.30
49194;BME280;35029;50.804;12.866;2024-03-29T07:08:50;96168.22;;;8.77;65.88
49194;BME280;35029;50.804;12.866;2024-03-29T07:11:15;96163.78;;;8.89;62.99
49194;BME280;35029;50.804;12.866;2024-03-29T07:13:41;96174.31;;;9.08;61.97
49194;BME280;35029;50.804;12.866;2024-03-29T07:16:07;96175.16;;;9.20;59.14
49194;BME280;35029;50.804;12.866;2024-03-29T07:18:33;96156.91;;;9.30;58.46
49194;BME280;35029;50.804;12.866;2024-03-29T07:20:58;96149.78;;;9.31;58.52
49194;BME280;35029;50.804;12.866;2024-03-29T07:23:24;96166.72;;;9.42;58.87
49194;BME280;35029;50.804;12.866;2024-03-29T07:25:59;96168.94;;;9.45;59.21
49194;BME280;35029;50.804;12.866;2024-03-29T07:28:26;96177.19;;;9.48;59.53
49194;BME280;35029;50.804;12.866;2024-03-29T07:30:52;96181.00;;;9.53;58.78
49194;BME280;35029;50.804;12.866;2024-03-29T07:33:19;96206.19;;;9.55;58.44
49194;BME280;35029;50.804;12.866;2024-03-29T07:35:47;96186.75;;;9.50;56.77
49194;BME280;35029;50.804;12.866;2024-03-29T07:38:13;96204.63;;;9.66;56.03
49194;BME280;35029;50.804;12.866;2024-03-29T07:40:43;96209.69;;;9.68;55.46
49194;BME280;35029;50.804;12.866;2024-03-29T07:43:09;96215.78;;;9.68;55.77
49194;BME280;35029;50.804;12.866;2024-03-29T07:45:41;96193.91;;;9.61;56.06
49194;BME280;35029;50.804;12.866;2024-03-29T07:48:14;96222.47;;;9.71;55.71
49194;BME280;35029;50.804;12.866;2024-03-29T07:50:40;96221.09;;;9.80;54.60
49194;BME280;35029;50.804;12.866;2024-03-29T07:53:07;96224.66;;;9.74;54.79
49194;BME280;35029;50.804;12.866;2024-03-29T07:55:35;96221.78;;;9.75;56.81
49194;BME280;35029;50.804;12.866;2024-03-29T07:58:01;96226.94;;;9.70;54.83
49194;BME280;35029;50.804;12.866;2024-03-29T08:00:31;96231.34;;;9.76;54.98
49194;BME280;35029;50.804;12.866;2024-03-29T08:02:57;96223.97;;;9.78;55.40
49194;BME280;35029;50.804;12.866;2024-03-29T08:05:23;96204.47;;;9.61;55.46
49194;BME280;35029;50.804;12.866;2024-03-29T08:07:50;96230.50;;;9.76;55.54
49194;BME280;35029;50.804;12.866;2024-03-29T08:10:15;96222.81;;;9.74;56.73
49194;BME280;35029;50.804;12.866;2024-03-29T08:12:41;96218.34;;;9.75;56.12
49194;BME280;35029;50.804;12.866;2024-03-29T08:15:07;96216.72;;;9.74;56.15
49194;BME280;35029;50.804;12.866;2024-03-29T08:17:34;96207.25;;;9.66;56.33
49194;BME280;35029;50.804;12.866;2024-03-29T08:20:00;96216.59;;;9.69;57.12
49194;BME280;35029;50.804;12.866;2024-03-29T08:22:25;96219.38;;;9.74;56.64
49194;BME280;35029;50.804;12.866;2024-03-29T08:24:54;96212.44;;;9.73;56.63
49194;BME280;35029;50.804;12.866;2024-03-29T08:27:21;96216.72;;;9.74;56.36
49194;BME280;35029;50.804;12.866;2024-03-29T08:29:47;96219.59;;;9.72;57.32
49194;BME280;35029;50.804;12.866;2024-03-29T08:32:16;96181.09;;;9.46;57.88
49194;BME280;35029;50.804;12.866;2024-03-29T08:34:41;96186.38;;;9.46;57.86
49194;BME280;35029;50.804;12.866;2024-03-29T08:37:07;96205.63;;;9.53;57.72
49194;BME280;35029;50.804;12.866;2024-03-29T08:39:32;96196.63;;;9.42;57.69
49194;BME280;35029;50.804;12.866;2024-03-29T08:41:59;96206.66;;;9.52;58.20
49194;BME280;35029;50.804;12.866;2024-03-29T08:44:33;96218.19;;;9.70;57.12
49194;BME280;35029;50.804;12.866;2024-03-29T08:46:59;96189.75;;;9.53;57.42
49194;BME280;35029;50.804;12.866;2024-03-29T08:49:27;96217.63;;;9.68;57.36
49194;BME280;35029;50.804;12.866;2024-03-29T08:51:53;96211.75;;;9.66;57.57
49194;BME280;35029;50.804;12.866;2024-03-29T08:54:18;96208.88;;;9.67;57.70
49194;BME280;35029;50.804;12.866;2024-03-29T08:56:44;96201.16;;;9.66;57.62
49194;BME280;35029;50.804;12.866;2024-03-29T08:59:10;96185.16;;;9.60;58.36
49194;BME280;35029;50.804;12.866;2024-03-29T09:01:39;96196.00;;;9.71;57.54
49194;BME280;35029;50.804;12.866;2024-03-29T09:04:04;96190.34;;;9.67;58.17
49194;BME280;35029;50.804;12.866;2024-03-29T09:06:32;96185.97;;;9.61;57.11
49194;BME280;35029;50.804;12.866;2024-03-29T09:08:58;96189.53;;;9.67;58.42
49194;BME280;35029;50.804;12.866;2024-03-29T09:11:24;96184.84;;;9.69;59.08
49194;BME280;35029;50.804;12.866;2024-03-29T09:13:50;96191.16;;;9.68;59.74
49194;BME280;35029;50.804;12.866;2024-03-29T09:16:15;96184.47;;;9.65;59.39
49194;BME280;35029;50.804;12.866;2024-03-29T09:18:41;96171.47;;;9.63;59.25
49194;BME280;35029;50.804;12.866;2024-03-29T09:21:07;96172.50;;;9.62;60.22
49194;BME280;35029;50.804;12.866;2024-03-29T09:23:34;96173.22;;;9.70;60.09
49194;BME280;35029;50.804;12.866;2024-03-29T09:26:00;96176.31;;;9.78;60.06
49194;BME280;35029;50.804;12.866;2024-03-29T09:28:25;96168.66;;;9.89;60.96
49194;BME280;35029;50.804;12.866;2024-03-29T09:30:57;96159.66;;;10.02;60.76
49194;BME280;35029;50.804;12.866;2024-03-29T09:33:24;96152.50;;;10.14;60.96
49194;BME280;35029;50.804;12.866;2024-03-29T09:35:49;96113.97;;;10.06;60.11
49194;BME280;35029;50.804;12.866;2024-03-29T09:38:16;96142.81;;;10.31;59.43
49194;BME280;35029;50.804;12.866;2024-03-29T09:40:41;96127.97;;;10.42;59.51
49194;BME280;35029;50.804;12.866;2024-03-29T09:43:09;96114.06;;;10.35;60.15
49194;BME280;35029;50.804;12.866;2024-03-29T09:45:36;96136.91;;;10.65;58.96
49194;BME280;35029;50.804;12.866;2024-03-29T09:48:03;96136.66;;;10.78;59.87
49194;BME280;35029;50.804;12.866;2024-03-29T09:50:30;96137.06;;;10.87;59.81
49194;BME280;35029;50.804;12.866;2024-03-29T09:52:57;96124.47;;;10.94;59.43
49194;BME280;35029;50.804;12.866;2024-03-29T09:55:23;96117.50;;;11.05;60.25
49194;BME280;35029;50.804;12.866;2024-03-29T09:57:50;96111.84;;;11.30;59.68
49194;BME280;35029;50.804;12.866;2024-03-29T10:00:16;96108.94;;;11.49;58.45
49194;BME280;35029;50.804;12.866;2024-03-29T10:02:43;96089.00;;;11.63;58.50
49194;BME280;35029;50.804;12.866;2024-03-29T10:05:11;96100.56;;;11.91;57.23
49194;BME280;35029;50.804;12.866;2024-03-29T10:07:38;96102.97;;;12.10;54.36
49194;BME280;35029;50.804;12.866;2024-03-29T10:10:05;96105.31;;;12.28;49.96
49194;BME280;35029;50.804;12.866;2024-03-29T10:12:31;96114.19;;;12.56;49.60
49194;BME280;35029;50.804;12.866;2024-03-29T10:14:57;96105.31;;;12.73;49.03
49194;BME280;35029;50.804;12.866;2024-03-29T10:17:35;96104.34;;;12.79;47.39
49194;BME280;35029;50.804;12.866;2024-03-29T10:20:04;96074.28;;;12.78;47.45
49194;BME280;35029;50.804;12.866;2024-03-29T10:22:35;96093.84;;;12.94;47.99
49194;BME280;35029;50.804;12.866;2024-03-29T10:25:01;96094.91;;;12.93;47.41
49194;BME280;35029;50.804;12.866;2024-03-29T10:27:27;96090.81;;;12.85;47.65
49194;BME280;35029;50.804;12.866;2024-03-29T10:29:53;96100.47;;;12.92;47.63
49194;BME280;35029;50.804;12.866;2024-03-29T10:32:18;96102.28;;;12.86;48.06
49194;BME280;35029;50.804;12.866;2024-03-29T10:34:44;96087.75;;;12.72;48.04
49194;BME280;35029;50.804;12.866;2024-03-29T10:37:09;96108.91;;;12.83;47.68
49194;BME280;35029;50.804;12.866;2024-03-29T10:39:36;96112.31;;;12.79;48.16
49194;BME280;35029;50.804;12.866;2024-03-29T10:42:02;96098.50;;;12.55;47.80
49194;BME280;35029;50.804;12.866;2024-03-29T10:44:30;96115.53;;;12.59;49.31
49194;BME280;35029;50.804;12.866;2024-03-29T10:46:58;96129.13;;;12.62;48.20
49194;BME280;35029;50.804;12.866;2024-03-29T10:49:25;96133.31;;;12.58;47.99
49194;BME280;35029;50.804;12.866;2024-03-29T10:51:52;96130.06;;;12.51;48.15
49194;BME280;35029;50.804;12.866;2024-03-29T10:54:19;96142.91;;;12.59;47.67
49194;BME280;35029;50.804;12.866;2024-03-29T10:56:47;96128.94;;;12.47;47.89
49194;BME280;35029;50.804;12.866;2024-03-29T10:59:27;96147.50;;;12.64;47.77
49194;BME280;35029;50.804;12.866;2024-03-29T11:01:59;96128.41;;;12.67;47.61
49194;BME280;35029;50.804;12.866;2024-03-29T11:04:34;96140.31;;;12.64;48.40
49194;BME280;35029;50.804;12.866;2024-03-29T11:07:06;96143.75;;;12.60;49.64
49194;BME280;35029;50.804;12.866;2024-03-29T11:09:33;96142.63;;;12.56;50.09
49194;BME280;35029;50.804;12.866;2024-03-29T11:12:01;96146.63;;;12.58;51.50
49194;BME280;35029;50.804;12.866;2024-03-29T11:14:33;96146.63;;;12.58;49.78
49194;BME280;35029;50.804;12.866;2024-03-29T11:17:03;96154.38;;;12.60;49.20
49194;BME280;35029;50.804;12.866;2024-03-29T11:19:29;96145.75;;;12.52;50.10
49194;BME280;35029;50.804;12.866;2024-03-29T11:21:55;96164.19;;;12.59;50.04
49194;BME280;35029;50.804;12.866;2024-03-29T11:24:22;96169.50;;;12.59;48.20
49194;BME280;35029;50.804;12.866;2024-03-29T11:26:47;96165.78;;;12.60;47.94
49194;BME280;35029;50.804;12.866;2024-03-29T11:29:23;96167.69;;;12.65;46.91
49194;BME280;35029;50.804;12.866;2024-03-29T11:31:59;96199.38;;;12.89;44.93
49194;BME280;35029;50.804;12.866;2024-03-29T11:34:25;96165.16;;;12.97;44.27
49194;BME280;35029;50.804;12.866;2024-03-29T11:36:50;96179.13;;;13.10;44.26
49194;BME280;35029;50.804;12.866;2024-03-29T11:39:20;96174.66;;;13.15;44.45
49194;BME280;35029;50.804;12.866;2024-03-29T11:41:47;96188.59;;;13.23;44.85
49194;BME280;35029;50.804;12.866;2024-03-29T11:44:14;96201.56;;;13.19;45.33
49194;BME280;35029;50.804;12.866;2024-03-29T11:46:39;96192.22;;;13.16;46.81
49194;BME280;35029;50.804;12.866;2024-03-29T11:49:06;96196.13;;;13.09;46.07
49194;BME280;35029;50.804;12.866;2024-03-29T11:51:31;96192.41;;;13.10;48.15
49194;BME280;35029;50.804;12.866;2024-03-29T11:53:57;96205.19;;;13.08;49.39
49194;BME280;35029;50.804;12.866;2024-03-29T11:56:22;96213.88;;;13.03;49.19
49194;BME280;35029;50.804;12.866;2024-03-29T11:58:48;96203.56;;;13.07;49.71
49194;BME280;35029;50.804;12.866;2024-03-29T12:01:16;96222.72;;;13.09;50.04
49194;BME280;35029;50.804;12.866;2024-03-29T12:03:42;96219.28;;;13.08;51.27
49194;BME280;35029;50.804;12.866;2024-03-29T12:06:09;96209.81;;;13.17;51.48
49194;BME280;35029;50.804;12.866;2024-03-29T12:08:38;96206.91;;;13.19;53.50
49194;BME280;35029;50.804;12.866;2024-03-29T12:11:05;96223.97;;;13.23;53.60
49194;BME280;35029;50.804;12.866;2024-03-29T12:13:31;96223.84;;;13.35;54.08
49194;BME280;35029;50.804;12.866;2024-03-29T12:15:57;96207.19;;;13.45;52.42
49194;BME280;35029;50.804;12.866;2024-03-29T12:18:25;96206.59;;;13.65;52.88
49194;BME280;35029;50.804;12.866;2024-03-29T12:20:51;96210.47;;;13.84;52.60
49194;BME280;35029;50.804;12.866;2024-03-29T12:23:21;96206.00;;;13.90;52.15
49194;BME280;35029;50.804;12.866;2024-03-29T12:25:49;96195.44;;;14.06;53.05
49194;BME280;35029;50.804;12.866;2024-03-29T12:28:16;96186.78;;;14.26;53.31
49194;BME280;35029;50.804;12.866;2024-03-29T12:30:43;96176.25;;;14.41;52.74
49194;BME280;35029;50.804;12.866;2024-03-29T12:33:12;96196.25;;;14.49;53.50
49194;BME280;35029;50.804;12.866;2024-03-29T12:35:45;96172.25;;;14.49;53.09
49194;BME280;35029;50.804;12.866;2024-03-29T12:38:17;96171.63;;;14.31;52.21
49194;BME280;35029;50.804;12.866;2024-03-29T12:40:44;96174.13;;;14.48;53.02
49194;BME280;35029;50.804;12.866;2024-03-29T12:43:11;96143.72;;;14.44;53.25
49194;BME280;35029;50.804;12.866;2024-03-29T12:45:38;96143.88;;;14.70;53.19
49194;BME280;35029;50.804;12.866;2024-03-29T12:48:11;96135.06;;;14.69;53.09
49194;BME280;35029;50.804;12.866;2024-03-29T12:50:37;96132.34;;;14.59;53.76
49194;BME280;35029;50.804;12.866;2024-03-29T12:53:07;96132.31;;;14.54;52.92
49194;BME280;35029;50.804;12.866;2024-03-29T12:55:33;96128.25;;;14.46;53.92